sensor_id;sensor_type;location;lat;lon;timestamp;P1;durP1;ratioP1;P2;durP2;ratioP2
65373;SDS011;52070;53.760;9.678;2022-08-05T00:01:41;10.10;;;3.65;;
65373;SDS011;52070;53.760;9.678;2022-08-05T00:04:09;8.07;;;3.25;;
65373;SDS011;52070;53.760;9.678;2022-08-05T00:06:36;5.95;;;3.45;;
65373;SDS011;52070;53.760;9.678;2022-08-05T00:09:03;8.93;;;3.42;;
65373;SDS011;52070;53.760;9.678;2022-08-05T00:11:31;12.25;;;3.58;;
65373;SDS011;52070;53.760;9.678;2022-08-05T00:13:58;11.18;;;3.40;;
65373;SDS011;52070;53.760;9.678;2022-08-05T00:16:25;3.13;;;2.67;;
65373;SDS011;52070;53.760;9.678;2022-08-05T00:18:52;4.78;;;2.70;;
65373;SDS011;52070;53.760;9.678;2022-08-05T00:21:20;7.78;;;3.17;;
65373;SDS011;52070;53.760;9.678;2022-08-05T00:23:47;8.85;;;2.80;;
65373;SDS011;52070;53.760;9.678;2022-08-05T00:26:15;6.97;;;2.70;;
65373;SDS011;52070;53.760;9.678;2022-08-05T00:28:44;6.05;;;2.40;;
65373;SDS011;52070;53.760;9.678;2022-08-05T00:31:11;8.50;;;2.80;;
65373;SDS011;52070;53.760;9.678;2022-08-05T00:33:38;5.78;;;2.67;;
65373;SDS011;52070;53.760;9.678;2022-08-05T00:36:05;6.50;;;3.05;;
65373;SDS011;52070;53.760;9.678;2022-08-05T00:38:34;5.97;;;2.67;;
65373;SDS011;52070;53.760;9.678;2022-08-05T00:41:03;9.23;;;2.90;;
65373;SDS011;52070;53.760;9.678;2022-08-05T00:43:32;4.88;;;2.53;;
65373;SDS011;52070;53.760;9.678;2022-08-05T00:45:59;8.75;;;2.63;;
65373;SDS011;52070;53.760;9.678;2022-08-05T00:48:26;4.70;;;2.40;;
65373;SDS011;52070;53.760;9.678;2022-08-05T00:50:53;5.82;;;2.55;;
65373;SDS011;52070;53.760;9.678;2022-08-05T00:53:20;9.40;;;3.05;;
65373;SDS011;52070;53.760;9.678;2022-08-05T00:55:50;6.80;;;2.45;;
65373;SDS011;52070;53.760;9.678;2022-08-05T00:58:17;6.60;;;2.22;;
65373;SDS011;52070;53.760;9.678;2022-08-05T01:00:44;10.98;;;2.70;;
65373;SDS011;52070;53.760;9.678;2022-08-05T01:03:12;7.63;;;2.58;;
65373;SDS011;52070;53.760;9.678;2022-08-05T01:05:39;4.88;;;2.30;;
65373;SDS011;52070;53.760;9.678;2022-08-05T01:08:07;7.78;;;2.45;;
65373;SDS011;52070;53.760;9.678;2022-08-05T01:10:37;5.97;;;2.60;;
65373;SDS011;52070;53.760;9.678;2022-08-05T01:13:12;6.43;;;2.13;;
65373;SDS011;52070;53.760;9.678;2022-08-05T01:15:46;5.57;;;2.25;;
65373;SDS011;52070;53.760;9.678;2022-08-05T01:18:19;6.53;;;2.35;;
65373;SDS011;52070;53.760;9.678;2022-08-05T01:20:52;4.82;;;2.10;;
65373;SDS011;52070;53.760;9.678;2022-08-05T01:23:30;5.57;;;2.22;;
65373;SDS011;52070;53.760;9.678;2022-08-05T01:26:13;7.83;;;2.30;;
65373;SDS011;52070;53.760;9.678;2022-08-05T01:28:55;3.30;;;2.25;;
65373;SDS011;52070;53.760;9.678;2022-08-05T01:31:25;5.75;;;2.03;;
65373;SDS011;52070;53.760;9.678;2022-08-05T01:33:55;5.40;;;2.10;;
65373;SDS011;52070;53.760;9.678;2022-08-05T01:36:28;5.85;;;2.20;;
65373;SDS011;52070;53.760;9.678;2022-08-05T01:38:58;7.57;;;2.50;;
65373;SDS011;52070;53.760;9.678;2022-08-05T01:41:26;3.58;;;1.90;;
65373;SDS011;52070;53.760;9.678;2022-08-05T01:43:58;6.28;;;2.20;;
65373;SDS011;52070;53.760;9.678;2022-08-05T01:48:55;10.68;;;2.15;;
65373;SDS011;52070;53.760;9.678;2022-08-05T01:51:24;3.20;;;2.00;;
65373;SDS011;52070;53.760;9.678;2022-08-05T01:53:52;6.55;;;2.17;;
65373;SDS011;52070;53.760;9.678;2022-08-05T01:56:21;4.60;;;1.92;;
65373;SDS011;52070;53.760;9.678;2022-08-05T01:58:51;9.75;;;2.08;;
65373;SDS011;52070;53.760;9.678;2022-08-05T02:01:21;9.07;;;2.53;;
65373;SDS011;52070;53.760;9.678;2022-08-05T02:03:50;6.80;;;2.30;;
65373;SDS011;52070;53.760;9.678;2022-08-05T02:06:19;7.75;;;2.50;;
65373;SDS011;52070;53.760;9.678;2022-08-05T02:08:46;4.93;;;2.50;;
65373;SDS011;52070;53.760;9.678;2022-08-05T02:11:14;5.47;;;2.30;;
65373;SDS011;52070;53.760;9.678;2022-08-05T02:13:43;8.23;;;2.37;;
65373;SDS011;52070;53.760;9.678;2022-08-05T02:16:13;8.48;;;2.30;;
65373;SDS011;52070;53.760;9.678;2022-08-05T02:18:49;6.47;;;3.03;;
65373;SDS011;52070;53.760;9.678;2022-08-05T02:21:21;6.25;;;2.30;;
65373;SDS011;52070;53.760;9.678;2022-08-05T02:23:52;6.38;;;2.38;;
65373;SDS011;52070;53.760;9.678;2022-08-05T02:26:23;7.95;;;2.47;;
65373;SDS011;52070;53.760;9.678;2022-08-05T02:28:57;5.43;;;2.80;;
65373;SDS011;52070;53.760;9.678;2022-08-05T02:31:26;6.60;;;3.35;;
65373;SDS011;52070;53.760;9.678;2022-08-05T02:34:01;12.73;;;3.55;;
65373;SDS011;52070;53.760;9.678;2022-08-05T02:36:30;11.02;;;3.58;;
65373;SDS011;52070;53.760;9.678;2022-08-05T02:39:00;5.20;;;3.05;;
65373;SDS011;52070;53.760;9.678;2022-08-05T02:41:29;9.32;;;3.70;;
65373;SDS011;52070;53.760;9.678;2022-08-05T02:43:58;7.32;;;3.50;;
65373;SDS011;52070;53.760;9.678;2022-08-05T02:46:26;9.93;;;3.78;;
65373;SDS011;52070;53.760;9.678;2022-08-05T02:48:54;12.80;;;4.05;;
65373;SDS011;52070;53.760;9.678;2022-08-05T02:51:23;11.18;;;4.15;;
65373;SDS011;52070;53.760;9.678;2022-08-05T02:53:52;5.18;;;3.97;;
65373;SDS011;52070;53.760;9.678;2022-08-05T02:56:20;9.52;;;3.88;;
65373;SDS011;52070;53.760;9.678;2022-08-05T02:58:47;11.48;;;4.20;;
65373;SDS011;52070;53.760;9.678;2022-08-05T03:01:17;9.25;;;3.83;;
65373;SDS011;52070;53.760;9.678;2022-08-05T03:03:48;10.40;;;4.15;;
65373;SDS011;52070;53.760;9.678;2022-08-05T03:06:19;7.82;;;4.13;;
65373;SDS011;52070;53.760;9.678;2022-08-05T03:08:47;6.15;;;3.67;;
65373;SDS011;52070;53.760;9.678;2022-08-05T03:11:16;15.70;;;4.68;;
65373;SDS011;52070;53.760;9.678;2022-08-05T03:13:43;10.45;;;4.72;;
65373;SDS011;52070;53.760;9.678;2022-08-05T03:16:10;12.23;;;4.57;;
65373;SDS011;52070;53.760;9.678;2022-08-05T03:18:40;9.63;;;4.05;;
65373;SDS011;52070;53.760;9.678;2022-08-05T03:21:08;9.02;;;4.38;;
65373;SDS011;52070;53.760;9.678;2022-08-05T03:23:37;11.82;;;4.28;;
65373;SDS011;52070;53.760;9.678;2022-08-05T03:26:06;8.70;;;3.90;;
65373;SDS011;52070;53.760;9.678;2022-08-05T03:28:34;10.88;;;4.10;;
65373;SDS011;52070;53.760;9.678;2022-08-05T03:31:02;7.00;;;4.32;;
65373;SDS011;52070;53.760;9.678;2022-08-05T03:33:30;10.18;;;4.35;;
65373;SDS011;52070;53.760;9.678;2022-08-05T03:35:58;5.93;;;3.90;;
65373;SDS011;52070;53.760;9.678;2022-08-05T03:38:25;8.55;;;4.70;;
65373;SDS011;52070;53.760;9.678;2022-08-05T03:40:54;7.28;;;4.07;;
65373;SDS011;52070;53.760;9.678;2022-08-05T03:43:21;10.23;;;4.47;;
65373;SDS011;52070;53.760;9.678;2022-08-05T03:45:50;5.88;;;4.43;;
65373;SDS011;52070;53.760;9.678;2022-08-05T03:48:18;8.55;;;4.20;;
65373;SDS011;52070;53.760;9.678;2022-08-05T03:50:48;11.63;;;4.68;;
65373;SDS011;52070;53.760;9.678;2022-08-05T03:53:20;9.65;;;4.28;;
65373;SDS011;52070;53.760;9.678;2022-08-05T03:55:57;7.85;;;4.38;;
65373;SDS011;52070;53.760;9.678;2022-08-05T03:58:28;7.07;;;4.15;;
65373;SDS011;52070;53.760;9.678;2022-08-05T04:00:59;6.60;;;4.60;;
65373;SDS011;52070;53.760;9.678;2022-08-05T04:03:28;7.78;;;4.70;;
65373;SDS011;52070;53.760;9.678;2022-08-05T04:06:03;10.15;;;4.50;;
65373;SDS011;52070;53.760;9.678;2022-08-05T04:08:31;8.18;;;4.75;;
65373;SDS011;52070;53.760;9.678;2022-08-05T04:11:01;7.45;;;4.32;;
65373;SDS011;52070;53.760;9.678;2022-08-05T04:13:30;12.25;;;5.40;;
65373;SDS011;52070;53.760;9.678;2022-08-05T04:15:58;11.10;;;4.95;;
65373;SDS011;52070;53.760;9.678;2022-08-05T04:18:25;10.23;;;5.22;;
65373;SDS011;52070;53.760;9.678;2022-08-05T04:20:53;10.82;;;5.50;;
65373;SDS011;52070;53.760;9.678;2022-08-05T04:23:21;20.55;;;5.63;;
65373;SDS011;52070;53.760;9.678;2022-08-05T04:25:49;13.88;;;5.82;;
65373;SDS011;52070;53.760;9.678;2022-08-05T04:28:17;9.40;;;5.75;;
65373;SDS011;52070;53.760;9.678;2022-08-05T04:30:45;10.07;;;5.47;;
65373;SDS011;52070;53.760;9.678;2022-08-05T04:33:13;12.07;;;6.07;;
65373;SDS011;52070;53.760;9.678;2022-08-05T04:35:41;9.48;;;5.43;;
65373;SDS011;52070;53.760;9.678;2022-08-05T04:38:08;8.77;;;5.45;;
65373;SDS011;52070;53.760;9.678;2022-08-05T04:40:36;8.38;;;5.05;;
65373;SDS011;52070;53.760;9.678;2022-08-05T04:43:04;9.80;;;4.80;;
65373;SDS011;52070;53.760;9.678;2022-08-05T04:45:33;11.23;;;5.43;;
65373;SDS011;52070;53.760;9.678;2022-08-05T04:48:04;9.77;;;5.65;;
65373;SDS011;52070;53.760;9.678;2022-08-05T04:50:37;9.20;;;4.65;;
65373;SDS011;52070;53.760;9.678;2022-08-05T04:53:05;9.25;;;5.03;;
65373;SDS011;52070;53.760;9.678;2022-08-05T04:55:33;12.15;;;5.55;;
65373;SDS011;52070;53.760;9.678;2022-08-05T04:58:01;11.00;;;5.18;;
65373;SDS011;52070;53.760;9.678;2022-08-05T05:00:28;13.75;;;5.25;;
65373;SDS011;52070;53.760;9.678;2022-08-05T05:02:56;9.27;;;5.18;;
65373;SDS011;52070;53.760;9.678;2022-08-05T05:05:23;7.25;;;4.50;;
65373;SDS011;52070;53.760;9.678;2022-08-05T05:07:50;8.77;;;5.20;;
65373;SDS011;52070;53.760;9.678;2022-08-05T05:10:17;12.13;;;5.03;;
65373;SDS011;52070;53.760;9.678;2022-08-05T05:12:44;9.15;;;5.38;;
65373;SDS011;52070;53.760;9.678;2022-08-05T05:15:11;10.13;;;5.30;;
65373;SDS011;52070;53.760;9.678;2022-08-05T05:17:39;10.15;;;5.60;;
65373;SDS011;52070;53.760;9.678;2022-08-05T05:20:10;12.45;;;5.55;;
65373;SDS011;52070;53.760;9.678;2022-08-05T05:22:38;10.57;;;5.20;;
65373;SDS011;52070;53.760;9.678;2022-08-05T05:25:06;12.10;;;5.47;;
65373;SDS011;52070;53.760;9.678;2022-08-05T05:27:34;9.82;;;5.03;;
65373;SDS011;52070;53.760;9.678;2022-08-05T05:30:02;9.25;;;4.68;;
65373;SDS011;52070;53.760;9.678;2022-08-05T05:32:30;10.57;;;5.35;;
65373;SDS011;52070;53.760;9.678;2022-08-05T05:34:57;7.50;;;4.43;;
65373;SDS011;52070;53.760;9.678;2022-08-05T05:37:25;9.88;;;4.80;;
65373;SDS011;52070;53.760;9.678;2022-08-05T05:39:52;11.77;;;4.85;;
65373;SDS011;52070;53.760;9.678;2022-08-05T05:42:19;8.48;;;4.35;;
65373;SDS011;52070;53.760;9.678;2022-08-05T05:44:46;7.85;;;4.40;;
65373;SDS011;52070;53.760;9.678;2022-08-05T05:47:13;6.70;;;4.18;;
65373;SDS011;52070;53.760;9.678;2022-08-05T05:49:40;10.60;;;4.72;;
65373;SDS011;52070;53.760;9.678;2022-08-05T05:52:07;11.02;;;4.80;;
65373;SDS011;52070;53.760;9.678;2022-08-05T05:54:35;9.35;;;4.30;;
65373;SDS011;52070;53.760;9.678;2022-08-05T05:57:03;8.82;;;4.32;;
65373;SDS011;52070;53.760;9.678;2022-08-05T05:59:30;8.77;;;4.30;;
65373;SDS011;52070;53.760;9.678;2022-08-05T06:01:57;7.50;;;5.07;;
65373;SDS011;52070;53.760;9.678;2022-08-05T06:04:24;13.30;;;5.10;;
65373;SDS011;52070;53.760;9.678;2022-08-05T06:06:51;9.48;;;5.07;;
65373;SDS011;52070;53.760;9.678;2022-08-05T06:09:18;10.68;;;5.35;;
65373;SDS011;52070;53.760;9.678;2022-08-05T06:11:46;8.95;;;4.82;;
65373;SDS011;52070;53.760;9.678;2022-08-05T06:14:15;8.97;;;4.87;;
65373;SDS011;52070;53.760;9.678;2022-08-05T06:16:42;7.28;;;4.22;;
65373;SDS011;52070;53.760;9.678;2022-08-05T06:19:11;7.35;;;4.47;;
65373;SDS011;52070;53.760;9.678;2022-08-05T06:21:38;9.20;;;4.40;;
65373;SDS011;52070;53.760;9.678;2022-08-05T06:24:06;5.57;;;3.70;;
65373;SDS011;52070;53.760;9.678;2022-08-05T06:26:34;6.78;;;4.00;;
65373;SDS011;52070;53.760;9.678;2022-08-05T06:29:02;7.18;;;4.03;;
65373;SDS011;52070;53.760;9.678;2022-08-05T06:31:30;7.10;;;3.85;;
65373;SDS011;52070;53.760;9.678;2022-08-05T06:33:57;11.55;;;4.55;;
65373;SDS011;52070;53.760;9.678;2022-08-05T06:36:24;8.10;;;3.88;;
65373;SDS011;52070;53.760;9.678;2022-08-05T06:38:51;8.80;;;3.10;;
65373;SDS011;52070;53.760;9.678;2022-08-05T06:41:19;9.25;;;3.33;;
65373;SDS011;52070;53.760;9.678;2022-08-05T06:43:46;8.18;;;2.67;;
65373;SDS011;52070;53.760;9.678;2022-08-05T06:46:15;5.13;;;2.60;;
65373;SDS011;52070;53.760;9.678;2022-08-05T06:48:42;6.75;;;2.67;;
65373;SDS011;52070;53.760;9.678;2022-08-05T06:51:09;6.88;;;2.78;;
65373;SDS011;52070;53.760;9.678;2022-08-05T06:53:36;5.68;;;2.28;;
65373;SDS011;52070;53.760;9.678;2022-08-05T06:56:06;8.65;;;2.17;;
65373;SDS011;52070;53.760;9.678;2022-08-05T06:58:34;3.10;;;2.30;;
65373;SDS011;52070;53.760;9.678;2022-08-05T07:01:02;5.07;;;2.00;;
65373;SDS011;52070;53.760;9.678;2022-08-05T07:03:31;8.30;;;2.25;;
65373;SDS011;52070;53.760;9.678;2022-08-05T07:05:59;7.28;;;2.00;;
65373;SDS011;52070;53.760;9.678;2022-08-05T07:08:28;6.68;;;2.17;;
65373;SDS011;52070;53.760;9.678;2022-08-05T07:10:55;8.40;;;2.00;;
65373;SDS011;52070;53.760;9.678;2022-08-05T07:13:22;6.22;;;2.33;;
65373;SDS011;52070;53.760;9.678;2022-08-05T07:16:08;6.43;;;1.92;;
65373;SDS011;52070;53.760;9.678;2022-08-05T07:18:53;4.07;;;2.10;;
65373;SDS011;52070;53.760;9.678;2022-08-05T07:21:20;6.20;;;2.17;;
65373;SDS011;52070;53.760;9.678;2022-08-05T07:23:47;4.15;;;1.67;;
65373;SDS011;52070;53.760;9.678;2022-08-05T07:26:14;7.07;;;1.90;;
65373;SDS011;52070;53.760;9.678;2022-08-05T07:28:41;4.90;;;1.70;;
65373;SDS011;52070;53.760;9.678;2022-08-05T07:31:08;7.65;;;2.05;;
65373;SDS011;52070;53.760;9.678;2022-08-05T07:33:35;5.60;;;2.17;;
65373;SDS011;52070;53.760;9.678;2022-08-05T07:36:04;6.05;;;1.90;;
65373;SDS011;52070;53.760;9.678;2022-08-05T07:38:31;4.18;;;1.80;;
65373;SDS011;52070;53.760;9.678;2022-08-05T07:40:59;6.68;;;2.03;;
65373;SDS011;52070;53.760;9.678;2022-08-05T07:43:26;4.35;;;1.70;;
65373;SDS011;52070;53.760;9.678;2022-08-05T07:45:53;6.13;;;2.22;;
65373;SDS011;52070;53.760;9.678;2022-08-05T07:48:20;4.32;;;1.80;;
65373;SDS011;52070;53.760;9.678;2022-08-05T07:50:46;5.53;;;2.25;;
65373;SDS011;52070;53.760;9.678;2022-08-05T07:53:15;8.02;;;2.35;;
65373;SDS011;52070;53.760;9.678;2022-08-05T07:55:42;5.25;;;2.38;;
65373;SDS011;52070;53.760;9.678;2022-08-05T07:58:09;5.63;;;2.00;;
65373;SDS011;52070;53.760;9.678;2022-08-05T08:00:36;6.10;;;2.30;;
65373;SDS011;52070;53.760;9.678;2022-08-05T08:03:03;7.88;;;2.75;;
65373;SDS011;52070;53.760;9.678;2022-08-05T08:05:37;6.70;;;2.47;;
65373;SDS011;52070;53.760;9.678;2022-08-05T08:08:04;6.20;;;2.47;;
65373;SDS011;52070;53.760;9.678;2022-08-05T08:10:32;5.45;;;2.28;;
65373;SDS011;52070;53.760;9.678;2022-08-05T08:12:59;4.63;;;2.13;;
65373;SDS011;52070;53.760;9.678;2022-08-05T08:15:26;4.07;;;2.10;;
65373;SDS011;52070;53.760;9.678;2022-08-05T08:17:53;3.45;;;2.10;;
65373;SDS011;52070;53.760;9.678;2022-08-05T08:20:20;4.53;;;2.10;;
65373;SDS011;52070;53.760;9.678;2022-08-05T08:22:51;4.25;;;2.60;;
65373;SDS011;52070;53.760;9.678;2022-08-05T08:25:19;7.82;;;2.30;;
65373;SDS011;52070;53.760;9.678;2022-08-05T08:27:47;4.43;;;1.90;;
65373;SDS011;52070;53.760;9.678;2022-08-05T08:30:15;3.47;;;2.05;;
65373;SDS011;52070;53.760;9.678;2022-08-05T08:32:42;5.78;;;1.83;;
65373;SDS011;52070;53.760;9.678;2022-08-05T08:35:09;6.05;;;1.98;;
65373;SDS011;52070;53.760;9.678;2022-08-05T08:37:36;5.45;;;1.90;;
65373;SDS011;52070;53.760;9.678;2022-08-05T08:40:04;5.10;;;1.90;;
65373;SDS011;52070;53.760;9.678;2022-08-05T08:42:32;5.65;;;1.80;;
65373;SDS011;52070;53.760;9.678;2022-08-05T08:45:00;4.75;;;1.80;;
65373;SDS011;52070;53.760;9.678;2022-08-05T08:47:29;5.22;;;1.77;;
65373;SDS011;52070;53.760;9.678;2022-08-05T08:49:57;5.07;;;1.80;;
65373;SDS011;52070;53.760;9.678;2022-08-05T08:52:24;8.10;;;1.85;;
65373;SDS011;52070;53.760;9.678;2022-08-05T08:54:55;5.10;;;1.80;;
65373;SDS011;52070;53.760;9.678;2022-08-05T08:57:22;4.25;;;1.88;;
65373;SDS011;52070;53.760;9.678;2022-08-05T08:59:53;3.00;;;1.23;;
65373;SDS011;52070;53.760;9.678;2022-08-05T09:02:22;4.47;;;1.73;;
65373;SDS011;52070;53.760;9.678;2022-08-05T09:04:49;3.47;;;1.55;;
65373;SDS011;52070;53.760;9.678;2022-08-05T09:07:17;3.92;;;1.50;;
65373;SDS011;52070;53.760;9.678;2022-08-05T09:09:44;3.60;;;1.23;;
65373;SDS011;52070;53.760;9.678;2022-08-05T09:12:11;2.60;;;1.35;;
65373;SDS011;52070;53.760;9.678;2022-08-05T09:14:38;4.95;;;1.58;;
65373;SDS011;52070;53.760;9.678;2022-08-05T09:17:06;4.90;;;1.20;;
65373;SDS011;52070;53.760;9.678;2022-08-05T09:19:35;3.75;;;1.65;;
65373;SDS011;52070;53.760;9.678;2022-08-05T09:22:02;4.20;;;1.40;;
65373;SDS011;52070;53.760;9.678;2022-08-05T09:24:30;6.15;;;1.90;;
65373;SDS011;52070;53.760;9.678;2022-08-05T09:26:57;3.75;;;1.30;;
65373;SDS011;52070;53.760;9.678;2022-08-05T09:29:36;3.83;;;1.40;;
65373;SDS011;52070;53.760;9.678;2022-08-05T09:32:07;6.35;;;1.70;;
65373;SDS011;52070;53.760;9.678;2022-08-05T09:34:50;3.28;;;1.40;;
65373;SDS011;52070;53.760;9.678;2022-08-05T09:37:19;3.65;;;1.58;;
65373;SDS011;52070;53.760;9.678;2022-08-05T09:39:47;5.93;;;1.60;;
65373;SDS011;52070;53.760;9.678;2022-08-05T09:42:15;2.88;;;1.50;;
65373;SDS011;52070;53.760;9.678;2022-08-05T09:44:43;2.65;;;1.50;;
65373;SDS011;52070;53.760;9.678;2022-08-05T09:47:12;3.78;;;1.30;;
65373;SDS011;52070;53.760;9.678;2022-08-05T09:49:42;2.80;;;1.67;;
65373;SDS011;52070;53.760;9.678;2022-08-05T09:52:19;2.75;;;1.25;;
65373;SDS011;52070;53.760;9.678;2022-08-05T09:54:58;5.03;;;1.48;;
65373;SDS011;52070;53.760;9.678;2022-08-05T09:57:34;3.65;;;1.30;;
65373;SDS011;52070;53.760;9.678;2022-08-05T10:00:05;2.33;;;1.20;;
65373;SDS011;52070;53.760;9.678;2022-08-05T10:02:36;4.72;;;1.20;;
65373;SDS011;52070;53.760;9.678;2022-08-05T10:05:06;7.30;;;1.37;;
65373;SDS011;52070;53.760;9.678;2022-08-05T10:10:27;3.63;;;1.23;;
65373;SDS011;52070;53.760;9.678;2022-08-05T10:12:59;3.45;;;1.20;;
65373;SDS011;52070;53.760;9.678;2022-08-05T10:15:27;3.55;;;1.08;;
65373;SDS011;52070;53.760;9.678;2022-08-05T10:18:03;2.92;;;0.93;;
65373;SDS011;52070;53.760;9.678;2022-08-05T10:20:35;3.30;;;1.10;;
65373;SDS011;52070;53.760;9.678;2022-08-05T10:23:05;6.05;;;1.75;;
65373;SDS011;52070;53.760;9.678;2022-08-05T10:25:32;8.45;;;1.70;;
65373;SDS011;52070;53.760;9.678;2022-08-05T10:28:00;5.63;;;1.85;;
65373;SDS011;52070;53.760;9.678;2022-08-05T10:30:27;6.80;;;2.08;;
65373;SDS011;52070;53.760;9.678;2022-08-05T10:32:56;8.60;;;1.90;;
65373;SDS011;52070;53.760;9.678;2022-08-05T10:35:24;6.60;;;2.20;;
65373;SDS011;52070;53.760;9.678;2022-08-05T10:37:51;4.07;;;1.85;;
65373;SDS011;52070;53.760;9.678;2022-08-05T10:40:27;6.05;;;1.95;;
65373;SDS011;52070;53.760;9.678;2022-08-05T10:43:00;4.45;;;1.95;;
65373;SDS011;52070;53.760;9.678;2022-08-05T10:45:33;8.52;;;2.15;;
65373;SDS011;52070;53.760;9.678;2022-08-05T10:48:32;8.85;;;2.45;;
65373;SDS011;52070;53.760;9.678;2022-08-05T10:51:03;7.25;;;2.00;;
65373;SDS011;52070;53.760;9.678;2022-08-05T10:53:32;5.07;;;1.80;;
65373;SDS011;52070;53.760;9.678;2022-08-05T10:56:06;3.78;;;1.90;;
65373;SDS011;52070;53.760;9.678;2022-08-05T10:58:34;7.95;;;2.20;;
65373;SDS011;52070;53.760;9.678;2022-08-05T11:01:03;5.78;;;2.05;;
65373;SDS011;52070;53.760;9.678;2022-08-05T11:03:31;7.13;;;2.20;;
65373;SDS011;52070;53.760;9.678;2022-08-05T11:06:10;3.65;;;1.60;;
65373;SDS011;52070;53.760;9.678;2022-08-05T11:08:38;7.88;;;2.28;;
65373;SDS011;52070;53.760;9.678;2022-08-05T11:11:47;5.90;;;2.00;;
65373;SDS011;52070;53.760;9.678;2022-08-05T11:14:21;9.30;;;2.67;;
65373;SDS011;52070;53.760;9.678;2022-08-05T11:19:55;9.18;;;2.55;;
65373;SDS011;52070;53.760;9.678;2022-08-05T11:22:37;5.28;;;2.20;;
65373;SDS011;52070;53.760;9.678;2022-08-05T11:31:16;8.02;;;2.10;;
65373;SDS011;52070;53.760;9.678;2022-08-05T11:33:55;3.13;;;1.80;;
65373;SDS011;52070;53.760;9.678;2022-08-05T11:36:39;5.13;;;1.88;;
65373;SDS011;52070;53.760;9.678;2022-08-05T11:39:09;7.18;;;2.25;;
65373;SDS011;52070;53.760;9.678;2022-08-05T11:41:37;4.80;;;1.80;;
65373;SDS011;52070;53.760;9.678;2022-08-05T11:44:07;2.22;;;1.50;;
65373;SDS011;52070;53.760;9.678;2022-08-05T11:46:38;7.25;;;1.83;;
65373;SDS011;52070;53.760;9.678;2022-08-05T11:49:07;6.43;;;1.83;;
65373;SDS011;52070;53.760;9.678;2022-08-05T11:51:39;7.03;;;1.85;;
65373;SDS011;52070;53.760;9.678;2022-08-05T11:54:10;5.43;;;1.73;;
65373;SDS011;52070;53.760;9.678;2022-08-05T11:56:43;8.02;;;2.20;;
65373;SDS011;52070;53.760;9.678;2022-08-05T11:59:13;6.78;;;2.20;;
65373;SDS011;52070;53.760;9.678;2022-08-05T12:01:54;8.52;;;2.30;;
65373;SDS011;52070;53.760;9.678;2022-08-05T12:04:23;5.82;;;2.25;;
65373;SDS011;52070;53.760;9.678;2022-08-05T12:06:50;6.53;;;2.50;;
65373;SDS011;52070;53.760;9.678;2022-08-05T12:09:20;6.90;;;2.83;;
65373;SDS011;52070;53.760;9.678;2022-08-05T12:11:49;10.98;;;3.67;;
65373;SDS011;52070;53.760;9.678;2022-08-05T12:14:17;7.13;;;3.08;;
65373;SDS011;52070;53.760;9.678;2022-08-05T12:16:46;9.18;;;3.60;;
65373;SDS011;52070;53.760;9.678;2022-08-05T12:19:14;7.35;;;3.00;;
65373;SDS011;52070;53.760;9.678;2022-08-05T12:21:45;7.35;;;2.80;;
65373;SDS011;52070;53.760;9.678;2022-08-05T12:24:14;8.90;;;2.92;;
65373;SDS011;52070;53.760;9.678;2022-08-05T12:26:43;6.65;;;3.10;;
65373;SDS011;52070;53.760;9.678;2022-08-05T12:29:13;5.57;;;2.40;;
65373;SDS011;52070;53.760;9.678;2022-08-05T12:31:44;5.10;;;2.67;;
65373;SDS011;52070;53.760;9.678;2022-08-05T12:34:12;7.97;;;3.78;;
65373;SDS011;52070;53.760;9.678;2022-08-05T12:36:40;8.85;;;2.70;;
65373;SDS011;52070;53.760;9.678;2022-08-05T12:39:08;5.95;;;2.50;;
65373;SDS011;52070;53.760;9.678;2022-08-05T12:41:36;6.05;;;2.50;;
65373;SDS011;52070;53.760;9.678;2022-08-05T12:44:06;5.50;;;2.33;;
65373;SDS011;52070;53.760;9.678;2022-08-05T12:46:35;10.75;;;2.10;;
65373;SDS011;52070;53.760;9.678;2022-08-05T12:49:05;7.95;;;2.47;;
65373;SDS011;52070;53.760;9.678;2022-08-05T12:54:12;6.80;;;2.50;;
65373;SDS011;52070;53.760;9.678;2022-08-05T12:56:46;6.57;;;2.45;;
65373;SDS011;52070;53.760;9.678;2022-08-05T13:01:43;4.53;;;1.80;;
65373;SDS011;52070;53.760;9.678;2022-08-05T13:04:15;5.38;;;1.88;;
65373;SDS011;52070;53.760;9.678;2022-08-05T13:06:42;5.03;;;2.15;;
65373;SDS011;52070;53.760;9.678;2022-08-05T13:09:10;8.75;;;2.40;;
65373;SDS011;52070;53.760;9.678;2022-08-05T13:11:39;3.83;;;1.88;;
65373;SDS011;52070;53.760;9.678;2022-08-05T13:14:15;3.35;;;2.00;;
65373;SDS011;52070;53.760;9.678;2022-08-05T13:16:45;7.13;;;1.90;;
65373;SDS011;52070;53.760;9.678;2022-08-05T13:19:17;7.40;;;2.33;;
65373;SDS011;52070;53.760;9.678;2022-08-05T13:21:46;5.88;;;1.98;;
65373;SDS011;52070;53.760;9.678;2022-08-05T13:24:14;6.57;;;1.98;;
65373;SDS011;52070;53.760;9.678;2022-08-05T13:26:42;4.70;;;1.88;;
65373;SDS011;52070;53.760;9.678;2022-08-05T13:29:10;5.55;;;2.00;;
65373;SDS011;52070;53.760;9.678;2022-08-05T13:31:38;6.32;;;2.40;;
65373;SDS011;52070;53.760;9.678;2022-08-05T13:34:05;6.13;;;1.90;;
65373;SDS011;52070;53.760;9.678;2022-08-05T13:36:33;5.85;;;2.00;;
65373;SDS011;52070;53.760;9.678;2022-08-05T13:39:01;5.60;;;2.00;;
65373;SDS011;52070;53.760;9.678;2022-08-05T13:41:29;7.20;;;2.20;;
65373;SDS011;52070;53.760;9.678;2022-08-05T13:43:57;6.85;;;2.08;;
65373;SDS011;52070;53.760;9.678;2022-08-05T13:46:24;5.68;;;2.20;;
65373;SDS011;52070;53.760;9.678;2022-08-05T13:48:52;6.50;;;2.10;;
65373;SDS011;52070;53.760;9.678;2022-08-05T13:51:24;5.15;;;2.15;;
65373;SDS011;52070;53.760;9.678;2022-08-05T13:53:55;5.72;;;1.90;;
65373;SDS011;52070;53.760;9.678;2022-08-05T13:56:22;7.97;;;2.67;;
65373;SDS011;52070;53.760;9.678;2022-08-05T13:58:49;5.10;;;1.90;;
65373;SDS011;52070;53.760;9.678;2022-08-05T14:01:16;5.75;;;2.10;;
65373;SDS011;52070;53.760;9.678;2022-08-05T14:03:44;3.65;;;1.80;;
65373;SDS011;52070;53.760;9.678;2022-08-05T14:06:31;4.47;;;1.70;;
65373;SDS011;52070;53.760;9.678;2022-08-05T14:08:58;11.23;;;3.08;;
65373;SDS011;52070;53.760;9.678;2022-08-05T14:11:26;3.42;;;1.70;;
65373;SDS011;52070;53.760;9.678;2022-08-05T14:13:53;5.50;;;1.85;;
65373;SDS011;52070;53.760;9.678;2022-08-05T14:16:21;5.35;;;1.95;;
65373;SDS011;52070;53.760;9.678;2022-08-05T14:18:49;3.55;;;2.03;;
65373;SDS011;52070;53.760;9.678;2022-08-05T14:21:16;8.25;;;1.92;;
65373;SDS011;52070;53.760;9.678;2022-08-05T14:23:43;3.05;;;1.75;;
65373;SDS011;52070;53.760;9.678;2022-08-05T14:26:11;5.40;;;1.95;;
65373;SDS011;52070;53.760;9.678;2022-08-05T14:28:38;3.78;;;1.45;;
65373;SDS011;52070;53.760;9.678;2022-08-05T14:31:08;5.57;;;1.83;;
65373;SDS011;52070;53.760;9.678;2022-08-05T14:33:35;4.65;;;2.55;;
65373;SDS011;52070;53.760;9.678;2022-08-05T14:36:02;6.47;;;1.90;;
65373;SDS011;52070;53.760;9.678;2022-08-05T14:38:30;2.85;;;1.75;;
65373;SDS011;52070;53.760;9.678;2022-08-05T14:40:57;3.45;;;1.80;;
65373;SDS011;52070;53.760;9.678;2022-08-05T14:43:26;4.65;;;2.40;;
65373;SDS011;52070;53.760;9.678;2022-08-05T14:45:53;7.70;;;2.25;;
65373;SDS011;52070;53.760;9.678;2022-08-05T14:48:20;3.63;;;2.00;;
65373;SDS011;52070;53.760;9.678;2022-08-05T14:50:47;3.53;;;1.92;;
65373;SDS011;52070;53.760;9.678;2022-08-05T14:53:14;5.47;;;2.00;;
65373;SDS011;52070;53.760;9.678;2022-08-05T14:55:41;5.82;;;1.90;;
65373;SDS011;52070;53.760;9.678;2022-08-05T14:58:08;5.03;;;2.13;;
65373;SDS011;52070;53.760;9.678;2022-08-05T15:00:36;6.50;;;2.10;;
65373;SDS011;52070;53.760;9.678;2022-08-05T15:03:04;7.15;;;2.28;;
65373;SDS011;52070;53.760;9.678;2022-08-05T15:05:32;5.18;;;2.50;;
65373;SDS011;52070;53.760;9.678;2022-08-05T15:07:59;6.65;;;2.72;;
65373;SDS011;52070;53.760;9.678;2022-08-05T15:10:26;6.63;;;2.80;;
65373;SDS011;52070;53.760;9.678;2022-08-05T15:12:55;6.30;;;2.85;;
65373;SDS011;52070;53.760;9.678;2022-08-05T15:15:24;5.18;;;2.00;;
65373;SDS011;52070;53.760;9.678;2022-08-05T15:17:53;5.10;;;1.85;;